Terminal Aerodrome Forecast
Issued by NWS Charleston, WV

Current Version | Previous Version | Graphics & Text | Print | Product List | Glossary On
Versions: 1 2 3 4 5 6 7 8 9 10 11 12 13 14 15 16 17 18 19 20 21 22 23 24 25 26
000
FTUS41 KRLX 201138
TAFCRW
TAF
KCRW 201138Z 2012/2112 00000KT 4SM BR SCT001
      TEMPO 2012/2013 1SM BR BKN001
     FM201330 00000KT P6SM FEW250
     FM201800 22003KT P6SM SCT050
     FM210000 00000KT P6SM FEW250
     FM210800 00000KT 5SM BR FEW250
     FM210900 00000KT 1SM BR BKN001
     FM211000 00000KT 1/4SM FG VV001=

USA.gov is the U.S. government's official web portal to all federal, state and local government web resources and services.